Time;durP1;ratioP1;P1;durP2;ratioP2;P2;SDS_P1;SDS_P2;PMS_P1;PMS_P2;Temp;Humidity;BMP_temperature;BMP_pressure;BME280_temperature;BME280_humidity;BME280_pressure;Samples;Min_cycle;Max_cycle;Signal;HPM_P1;HPM_P2
2023/12/14 00:01:25;;;;;;;17.23;8.57;;;;;;;-144.05;85.53;57035.75;5037102;28;20095;-82
2023/12/14 00:03:51;;;;;;;15.15;8.05;;;;;;;-144.05;85.64;57016.63;5039634;28;20048;-81
2023/12/14 00:06:18;;;;;;;17.50;8.05;;;;;;;-144.05;85.24;57061.22;5057336;28;20029;-79
2023/12/14 00:08:44;;;;;;;14.35;7.15;;;;;;;-144.05;85.39;56989.00;5049825;28;20453;-81
2023/12/14 00:11:11;;;;;;;14.05;7.70;;;7.70;99.90;;;-144.05;85.77;57003.88;5057410;28;20032;-80
2023/12/14 00:13:38;;;;;;;15.18;7.13;;;7.00;99.90;;;-144.05;85.82;57042.13;5059158;28;20028;-80
2023/12/14 00:16:06;;;;;;;15.73;7.78;;;;;;;-144.05;85.84;57029.38;5058353;28;20107;-81
2023/12/14 00:18:32;;;;;;;14.43;7.28;;;;;;;-144.05;85.66;57042.13;5036520;28;20510;-82
2023/12/14 00:20:58;;;;;;;13.65;7.28;;;;;;;-144.05;85.73;57010.25;5056226;28;20044;-82
2023/12/14 00:23:24;;;;;;;15.23;7.72;;;;;;;-144.05;85.89;56972.03;5056416;28;20028;-82
2023/12/14 00:25:51;;;;;;;12.52;7.18;;;;;;;-144.05;85.98;57014.50;5037842;28;20029;-82
2023/12/14 00:28:17;;;;;;;20.65;10.00;;;;;;;-144.05;85.92;57029.38;5051548;28;20486;-82
2023/12/14 00:30:44;;;;;;;24.73;12.90;;;;;;;-144.05;85.66;57023.00;5035118;28;20174;-82
2023/12/14 00:33:10;;;;;;;23.42;11.48;;;;;;;-144.05;85.39;57001.75;5042779;28;20108;-82
2023/12/14 00:35:36;;;;;;;26.35;12.45;;;;;;;-144.05;85.57;57023.00;5035584;28;20040;-82
2023/12/14 00:38:02;;;;;;;24.80;12.75;;;;;;;-144.05;85.50;56997.50;5035610;28;20502;-82
2023/12/14 00:40:28;;;;;;;22.23;12.73;;;;;;;-144.05;85.41;57018.75;5037692;28;20084;-81
2023/12/14 00:42:55;;;;;;;18.90;11.43;;;;;;;-144.05;85.69;57018.75;5040250;28;20029;-82
2023/12/14 00:45:21;;;;;;;24.85;10.82;;;;;;;-144.05;85.16;57033.63;5040685;28;20039;-77
2023/12/14 00:47:47;;;;;;;15.70;9.45;;;;;;;-144.05;85.12;57035.75;5054978;28;20035;-79
2023/12/14 00:50:14;;;;;;;13.43;9.02;;;;;;;-144.05;85.02;57018.75;5056035;28;20186;-81
2023/12/14 00:52:40;;;;;;;15.20;8.93;;;;;;;-144.05;85.16;57020.88;5058342;28;20024;-83
2023/12/14 00:55:07;;;;;;;14.20;8.80;;;;;;;-144.05;85.56;57025.13;5058680;28;20033;-80
2023/12/14 00:57:33;;;;;;;15.68;9.05;;;;;;;-144.05;84.82;57003.88;5055809;28;20029;-81
2023/12/14 00:59:59;;;;;;;13.40;7.80;;;;;;;-144.05;84.76;57003.88;5037691;28;20116;-79
2023/12/14 01:02:25;;;;;;;11.43;7.80;;;;;;;-144.05;85.02;57018.75;5033892;28;20025;-80
2023/12/14 01:04:51;;;;;;;12.65;8.43;;;;;;;-144.05;85.42;57010.25;5053983;28;20025;-80
2023/12/14 01:07:18;;;;;;;12.38;8.38;;;;;;;-144.05;85.41;57040.00;5034256;28;20040;-81
2023/12/14 01:09:44;;;;;;;12.90;8.18;;;;;;;-144.05;85.42;57031.50;5033906;28;20025;-82
2023/12/14 01:12:10;;;;;;;16.95;8.52;;;;;;;-144.05;85.22;57001.75;5054690;28;20064;-78
2023/12/14 01:14:36;;;;;;;13.35;7.88;;;;;;;-144.05;85.11;57001.75;5034403;28;20092;-81
2023/12/14 01:17:03;;;;;;;13.35;8.13;;;;;;;-144.05;85.52;57010.25;5046488;28;20025;-80
2023/12/14 01:19:30;;;;;;;12.25;8.30;;;;;;;-144.05;85.17;57023.00;5033779;28;20045;-81
2023/12/14 01:21:56;;;;;;;16.00;9.32;;;;;;;-144.05;85.17;56991.13;5034842;28;20557;-80
2023/12/14 01:24:22;;;;;;;17.58;10.27;;;;;;;-144.05;85.39;57018.75;5059047;28;20052;-80
2023/12/14 01:26:49;;;;;;;29.77;12.20;;;;;;;-144.05;85.14;57033.63;5056136;28;20029;-82
2023/12/14 01:29:15;;;;;;;21.50;10.98;;;;;;;-144.05;84.87;57052.75;5056118;28;20423;-80
2023/12/14 01:31:41;;;;;;;23.42;11.82;;;;;;;-144.05;84.69;57016.63;5054293;28;20522;-80
2023/12/14 01:34:10;;;;;;;21.25;11.27;;;;;;;-144.05;84.77;57018.75;5036552;28;20088;-80
2023/12/14 01:36:36;;;;;;;28.95;13.68;;;;;;;-144.05;84.91;57018.75;5035428;28;20089;-79
2023/12/14 01:39:02;;;;;;;27.33;12.65;;;;;;;-144.05;85.01;57029.38;5036107;28;20401;-81
2023/12/14 01:41:29;;;;;;;28.65;14.38;;;;;;;-144.05;85.40;57046.38;5036371;28;20025;-81
2023/12/14 01:43:55;;;;;;;23.33;13.43;;;;;;;-144.05;85.37;57001.75;5054248;28;20481;-82
2023/12/14 01:46:21;;;;;;;24.63;12.52;;;;;;;-144.05;85.40;57033.63;5036466;28;20043;-82
2023/12/14 01:48:47;;;;;;;23.88;13.60;;;;;;;-144.05;85.59;57033.63;5054892;28;20104;-82
2023/12/14 01:51:13;;;;;;;26.15;12.65;;;;;;;-144.05;85.42;57029.38;5053950;28;20139;-81
2023/12/14 01:53:40;;;;;;;21.88;12.98;;;;;;;-144.05;85.42;57025.13;5054171;28;20036;-81
2023/12/14 01:56:07;;;;;;;25.00;13.65;;;;;;;-144.05;85.45;57040.00;5054088;28;20036;-81
2023/12/14 01:58:33;;;;;;;24.55;13.55;;;;;;;-144.05;85.51;57023.00;5033437;28;20394;-83
2023/12/14 02:01:36;;;;;;;25.90;12.88;;;4.40;99.90;;;-144.05;85.52;57065.47;5053879;28;20060;-81
2023/12/14 02:04:04;;;;;;;25.45;12.77;;;;;;;-144.05;85.74;57023.00;5054425;28;20025;-81
2023/12/14 02:06:30;;;;;;;23.90;12.82;;;;;;;-144.05;85.63;57052.75;5054704;28;20112;-83
2023/12/14 02:08:56;;;;;;;19.77;11.23;;;;;;;-144.05;85.89;57029.38;5053941;28;20080;-82
2023/12/14 02:11:22;;;;;;;21.75;11.05;;;;;;;-144.05;86.10;57033.63;5035375;28;20025;-81
2023/12/14 02:13:48;;;;;;;22.50;11.38;;;;;;;-144.05;85.97;57035.75;5053907;28;20136;-81
2023/12/14 02:16:15;;;;;;;29.25;12.57;;;;;;;-144.05;85.92;57044.25;5053380;28;20545;-80
2023/12/14 02:18:41;;;;;;;25.08;12.82;;;;;;;-144.05;85.74;57042.13;5035529;28;20167;-81
2023/12/14 02:21:07;;;;;;;22.75;11.55;;;;;;;-144.05;85.57;57035.75;5055328;28;20028;-80
2023/12/14 02:23:34;;;;;;;21.60;10.20;;;;;;;-144.05;85.67;57018.75;5058020;28;20029;-80
2023/12/14 02:26:00;;;;;;;19.80;9.00;;;;;;;-144.05;85.52;57033.63;5051869;28;20103;-81
2023/12/14 02:28:27;;;;;;;18.45;9.90;;;;;;;-144.05;85.69;57052.75;5035674;28;20453;-83
2023/12/14 02:30:53;;;;;;;20.65;10.38;;;;;;;-144.05;86.14;57020.88;5035547;28;20317;-82
2023/12/14 02:33:19;;;;;;;20.15;10.27;;;;;;;-144.05;86.16;57020.88;5035791;28;20033;-80
2023/12/14 02:35:45;;;;;;;22.35;10.70;;;;;;;-144.05;86.10;57014.50;5034796;28;20482;-80
2023/12/14 02:38:11;;;;;;;18.25;8.40;;;;;;;-144.05;86.12;57048.50;5036012;28;20029;-80
2023/12/14 02:40:38;;;;;;;18.38;9.18;;;;;;;-144.05;86.27;57014.50;5039649;28;20028;-79
2023/12/14 02:43:04;;;;;;;19.13;9.40;;;;;;;-144.05;86.37;57001.75;5041984;28;20040;-80
2023/12/14 02:45:30;;;;;;;26.55;12.30;;;;;;;-144.05;86.19;57044.25;5041039;28;20025;-80
2023/12/14 02:47:57;;;;;;;23.17;11.30;;;;;;;-144.05;85.77;57050.63;5034346;28;20022;-80
2023/12/14 02:50:23;;;;;;;23.05;12.02;;;;;;;-144.05;85.92;57008.13;5036123;28;20390;-80
2023/12/14 02:52:49;;;;;;;26.83;13.38;;;;;;;-144.05;86.14;57006.00;5035945;28;20033;-81
2023/12/14 02:55:16;;;;;;;24.45;12.40;;;;;;;-144.05;85.94;57016.63;5030524;28;20060;-79
2023/12/14 02:57:42;;;;;;;28.33;13.55;;;;;;;-144.05;86.02;57054.88;5036900;28;20086;-81
2023/12/14 03:00:09;;;;;;;28.38;13.70;;;;;;;-144.05;86.11;57048.50;5055623;28;20441;-79
2023/12/14 03:02:35;;;;;;;23.58;12.25;;;;;;;-144.05;86.30;57023.00;5054861;28;20033;-81
2023/12/14 03:05:01;;;;;;;23.02;12.70;;;;;;;-144.05;86.10;57014.50;5054899;28;20064;-81
2023/12/14 03:07:28;;;;;;;25.90;14.30;;;;;;;-144.05;86.10;57071.84;5037691;28;20043;-81
2023/12/14 03:09:54;;;;;;;26.50;12.75;;;;;;;-144.05;86.16;57035.75;5057088;28;20049;-81
2023/12/14 03:12:20;;;;;;;27.65;14.23;;;;;;;-144.05;85.99;57020.88;5059594;28;20028;-79
2023/12/14 03:14:46;;;;;;;22.15;12.15;;;;;;;-144.05;86.27;57048.50;5059258;28;20025;-80
2023/12/14 03:17:12;;;;;;;29.30;14.57;;;;;;;-144.05;86.25;57035.75;5059657;28;20100;-81
2023/12/14 03:19:42;;;;;;;29.67;14.18;;;;;;;-144.05;86.04;57040.00;5058419;28;20032;-81
2023/12/14 03:22:09;;;;;;;26.65;12.80;;;;;;;-144.05;86.05;57052.75;5057559;28;20040;-81
2023/12/14 03:24:36;;;;;;;25.63;13.07;;;5.70;99.90;;;-144.05;85.96;57044.25;5059591;28;20032;-82
2023/12/14 03:27:04;;;;;;;23.77;12.10;;;6.10;99.90;;;-144.05;85.99;57040.00;5037598;28;20509;-80
2023/12/14 03:29:31;;;;;;;28.63;12.77;;;;;;;-144.05;86.16;57056.97;5038772;28;20040;-80
2023/12/14 03:31:58;;;;;;;29.77;13.75;;;;;;;-144.05;85.89;56993.25;5056222;28;20060;-79
2023/12/14 03:34:25;;;;;;;33.60;14.10;;;;;;;-144.05;85.91;57040.00;5058318;28;20044;-80
2023/12/14 03:36:51;;;;;;;33.67;14.35;;;;;;;-144.05;86.04;57050.63;5054956;28;20025;-81
2023/12/14 03:39:17;;;;;;;33.92;16.05;;;;;;;-144.05;85.98;57010.25;5037587;28;20029;-80
2023/12/14 03:41:45;;;;;;;35.92;15.55;;;;;;;-144.05;86.27;57035.75;5036132;28;20149;-83
2023/12/14 03:44:11;;;;;;;31.52;15.23;;;;;;;-144.05;85.80;57044.25;5035981;28;20066;-79
2023/12/14 03:46:37;;;;;;;33.55;16.60;;;;;;;-144.05;86.19;57014.50;5053409;28;20033;-80
2023/12/14 03:49:04;;;;;;;35.58;15.73;;;;;;;-144.05;86.19;57010.25;5054975;28;20478;-81
2023/12/14 03:51:30;;;;;;;29.45;12.43;;;;;;;-144.05;86.01;57033.63;5055253;28;20397;-83
2023/12/14 03:53:56;;;;;;;31.13;14.05;;;;;;;-144.05;85.94;57040.00;5058458;28;20029;-82
2023/12/14 03:56:23;;;;;;;28.75;13.30;;;;;;;-144.05;86.09;57031.50;5058603;28;20031;-81
2023/12/14 03:58:49;;;;;;;34.03;14.48;;;;;;;-144.05;86.03;57025.13;5057707;28;20025;-81
2023/12/14 04:01:20;;;;;;;26.00;12.40;;;6.10;99.90;;;-144.05;85.83;57065.47;5037437;28;20029;-82
2023/12/14 04:03:48;;;;;;;30.92;12.70;;;;;;;-144.05;85.75;57003.88;5033728;28;20084;-81
2023/12/14 04:06:15;;;;;;;24.52;12.23;;;;;;;-144.05;85.72;57025.13;5032885;28;20359;-80
2023/12/14 04:08:42;;;;;;;22.00;12.02;;;;;;;-144.05;85.37;57033.63;5050803;28;20043;-81
2023/12/14 04:11:08;;;;;;;27.50;14.07;;;;;;;-144.05;85.66;57020.88;5053438;28;20033;-79
2023/12/14 04:13:35;;;;;;;27.50;12.68;;;;;;;-144.05;85.51;56995.38;5032215;28;20453;-80
2023/12/14 04:16:01;;;;;;;23.75;12.32;;;;;;;-144.05;85.58;57033.63;5052567;28;20028;-80
2023/12/14 04:18:28;;;;;;;37.28;16.80;;;;;;;-144.05;85.54;57029.38;5036170;28;20047;-80
2023/12/14 04:20:54;;;;;;;83.13;31.80;;;;;;;-144.05;85.66;57033.63;5035435;28;20547;-80
2023/12/14 04:23:20;;;;;;;25.02;12.57;;;;;;;-144.05;85.37;57048.50;5035615;28;20056;-81
2023/12/14 04:25:46;;;;;;;36.15;15.93;;;;;;;-144.05;85.76;57018.75;5051723;28;20025;-80
2023/12/14 04:28:12;;;;;;;25.02;12.77;;;;;;;-144.05;85.65;57014.50;5032052;28;20059;-78
2023/12/14 04:30:39;;;;;;;34.95;14.90;;;;;;;-144.05;85.87;57050.63;5031456;28;20036;-79
2023/12/14 04:33:05;;;;;;;22.67;10.93;;;;;;;-144.05;85.71;57044.25;5035036;28;20489;-83
2023/12/14 04:35:36;;;;;;;25.50;11.93;;;;;;;-144.05;85.80;57056.97;5035064;28;20035;-80
2023/12/14 04:38:02;;;;;;;19.48;10.10;;;;;;;-144.05;86.04;57003.88;5052710;28;20029;-80
2023/12/14 04:40:28;;;;;;;19.15;10.02;;;;;;;-144.05;85.60;57027.25;5051629;28;20485;-81
2023/12/14 04:42:54;;;;;;;17.60;8.80;;;;;;;-144.05;85.77;57010.25;5042300;28;20041;-80
2023/12/14 04:45:21;;;;;;;19.77;9.50;;;;;;;-144.05;85.46;57006.00;5029449;28;20131;-80
2023/12/14 04:47:47;;;;;;;19.25;9.40;;;;;;;-144.05;85.42;57048.50;5053539;28;20080;-82
2023/12/14 04:50:13;;;;;;;22.77;10.90;;;;;;;-144.05;85.93;57027.25;5032700;28;20460;-79
2023/12/14 04:52:42;;;;;;;17.85;10.02;;;6.40;99.90;;;-144.05;85.47;57046.38;5030641;28;20030;-81
2023/12/14 04:55:09;;;;;;;14.77;8.20;;;;;;;-144.05;85.61;57031.50;5054356;28;20033;-79
2023/12/14 04:57:36;;;;;;;24.58;12.23;;;;;;;-144.05;85.50;57048.50;5053774;28;20139;-77
2023/12/14 05:00:05;;;;;;;15.32;7.82;;;;;;;-144.05;85.67;56993.25;5032211;28;20091;-78
2023/12/14 05:02:33;;;;;;;17.20;9.50;;;;;;;-144.05;85.71;57010.25;5051006;28;20025;-77
2023/12/14 05:04:59;;;;;;;17.63;8.40;;;;;;;-144.05;85.67;57040.00;5036389;28;20025;-78
2023/12/14 05:07:26;;;;;;;17.52;9.20;;;;;;;-144.05;85.70;57069.72;5057320;28;20398;-80
2023/12/14 05:09:52;;;;;;;17.77;9.10;;;;;;;-144.05;85.56;57052.75;5038364;28;20096;-81
2023/12/14 05:12:18;;;;;;;17.67;9.88;;;;;;;-144.05;85.21;57008.13;5043307;28;20053;-80
2023/12/14 05:14:44;;;;;;;17.38;9.45;;;;;;;-144.05;84.99;57048.50;5061244;28;20057;-79
2023/12/14 05:17:11;;;;;;;15.02;8.88;;;;;;;-144.05;85.18;57020.88;5061728;28;20085;-80
2023/12/14 05:19:37;;;;;;;21.27;10.40;;;;;;;-144.05;85.36;57048.50;5045147;28;20021;-78
2023/12/14 05:22:04;;;;;;;23.05;9.52;;;;;;;-144.05;85.18;57025.13;5048865;28;20035;-78
2023/12/14 05:24:30;;;;;;;18.27;9.70;;;;;;;-144.05;85.07;57033.63;5063475;28;20029;-81
2023/12/14 05:26:56;;;;;;;21.65;10.52;;;;;;;-144.05;85.22;57020.88;5041402;28;20062;-81
2023/12/14 05:29:23;;;;;;;17.90;9.60;;;;;;;-144.05;85.26;57010.25;5037926;28;20458;-81
2023/12/14 05:31:50;;;;;;;23.67;11.50;;;;;;;-144.05;84.80;57031.50;5037009;28;20070;-80
2023/12/14 05:34:16;;;;;;;21.38;11.27;;;;;;;-144.05;85.02;57025.13;5039108;28;20553;-80
2023/12/14 05:36:42;;;;;;;19.73;10.80;;;;;;;-144.05;85.16;57014.50;5049605;28;20086;-80
2023/12/14 05:39:09;;;;;;;20.60;10.93;;;;;;;-144.05;85.11;57044.25;5037708;28;20401;-80
2023/12/14 05:41:41;;;;;;;21.83;11.02;;;3.60;99.90;;;-144.05;85.27;57033.63;5056758;28;20427;-82
2023/12/14 05:44:07;;;;;;;29.95;12.57;;;;;;;-144.05;85.21;57016.63;5035023;28;20083;-80
2023/12/14 05:46:34;;;;;;;20.75;10.82;;;;;;;-144.05;85.08;57078.22;5035972;28;20091;-80
2023/12/14 05:49:00;;;;;;;22.08;11.32;;;;;;;-144.05;85.24;57035.75;5055761;28;20125;-81
2023/12/14 05:51:32;;;;;;;23.33;10.77;;;5.80;99.90;;;-144.05;85.20;57020.88;5057590;28;20379;-81
2023/12/14 05:53:58;;;;;;;20.63;11.00;;;;;;;-144.05;85.34;57059.09;5058272;28;20482;-79
2023/12/14 05:56:25;;;;;;;24.50;12.07;;;;;;;-144.05;85.24;57071.84;5061050;28;20041;-80
2023/12/14 05:58:51;;;;;;;25.77;10.55;;;;;;;-144.05;85.19;57054.88;5060440;28;20772;-80
2023/12/14 06:01:20;;;;;;;25.95;11.20;;;5.80;99.90;;;-144.05;84.89;57025.13;5059528;28;20117;-77
2023/12/14 06:03:46;;;;;;;23.75;12.75;;;;;;;-144.05;84.92;57035.75;5060807;28;20040;-81
2023/12/14 06:06:13;;;;;;;21.88;10.27;;;;;;;-144.05;85.42;57044.25;5060447;28;20558;-79
2023/12/14 06:08:40;;;;;;;24.60;12.77;;;;;;;-144.05;85.08;57035.75;5058683;28;20071;-80
2023/12/14 06:11:06;;;;;;;24.30;12.15;;;;;;;-144.05;84.96;57046.38;5036337;28;20120;-81
2023/12/14 06:13:33;;;;;;;26.63;13.48;;;5.70;99.90;;;-144.05;85.04;57056.97;5038073;28;20049;-74
2023/12/14 06:15:59;;;;;;;27.92;13.70;;;;;;;-144.05;84.91;56997.50;5033758;28;20033;-74
2023/12/14 06:18:26;;;;;;;24.63;12.25;;;;;;;-144.05;85.16;57073.97;5034806;28;20120;-74
2023/12/14 06:20:52;;;;;;;25.50;13.68;;;;;;;-144.05;85.01;57025.13;5034708;28;20057;-75
2023/12/14 06:23:19;;;;;;;25.70;13.82;;;;;;;-144.05;85.08;57040.00;5035186;28;20034;-74
2023/12/14 06:25:45;;;;;;;27.58;13.10;;;;;;;-144.05;85.10;57050.63;5045517;28;20534;-83
2023/12/14 06:28:12;;;;;;;29.23;14.43;;;;;;;-144.05;84.94;57042.13;5037383;28;20080;-81
2023/12/14 06:30:38;;;;;;;30.30;12.77;;;;;;;-144.05;85.09;57050.63;5037699;28;20030;-79
2023/12/14 06:33:04;;;;;;;29.30;14.88;;;;;;;-144.05;85.13;57012.38;5052624;28;20056;-81
2023/12/14 06:35:30;;;;;;;30.45;14.07;;;;;;;-144.05;85.02;57042.13;5038155;28;20136;-81
2023/12/14 06:37:56;;;;;;;29.48;14.95;;;;;;;-144.05;84.89;57046.38;5041100;28;20021;-81
2023/12/14 06:40:23;;;;;;;30.40;14.93;;;;;;;-144.05;84.99;57031.50;5061765;28;20332;-80
2023/12/14 06:42:49;;;;;;;30.10;14.68;;;;;;;-144.05;84.96;57006.00;5052292;28;20033;-78
2023/12/14 06:45:16;;;;;;;26.88;13.77;;;;;;;-144.05;84.79;57031.50;5042421;28;20048;-77
2023/12/14 06:47:43;;;;;;;33.92;14.13;;;;;;;-144.05;84.94;57014.50;5059123;28;20120;-76
2023/12/14 06:50:10;;;;;;;30.52;13.65;;;6.20;99.90;;;-144.05;85.00;57040.00;5059357;28;20394;-78
2023/12/14 06:52:36;;;;;;;27.42;14.38;;;;;;;-144.05;84.99;57042.13;5051477;28;20040;-76
2023/12/14 06:55:02;;;;;;;30.50;14.35;;;;;;;-144.05;84.90;57048.50;5067495;28;20041;-79
2023/12/14 06:57:29;;;;;;;31.27;14.50;;;;;;;-144.05;84.92;57033.63;5055123;28;20021;-80
2023/12/14 06:59:55;;;;;;;30.08;14.95;;;;;;;-144.05;84.82;57027.25;5045890;28;20041;-80
2023/12/14 07:02:21;;;;;;;28.67;14.75;;;;;;;-144.05;84.93;57046.38;5047930;28;20037;-81
2023/12/14 07:04:47;;;;;;;27.70;14.43;;;;;;;-144.05;84.95;57033.63;5042455;28;20029;-81
2023/12/14 07:07:15;;;;;;;32.70;14.25;;;;;;;-144.05;84.92;57033.63;5061322;28;20070;-81
2023/12/14 07:09:42;;;;;;;29.88;13.93;;;;;;;-144.05;84.73;57031.50;5059958;28;20029;-81
2023/12/14 07:12:11;;;;;;;27.65;13.95;;;;;;;-144.05;84.89;57029.38;5042254;28;20586;-83
2023/12/14 07:14:37;;;;;;;29.08;12.88;;;;;;;-144.05;84.41;57012.38;5060521;28;20029;-82
2023/12/14 07:17:05;;;;;;;28.20;13.45;;;;;;;-144.05;84.51;57029.38;5046625;28;20057;-81
2023/12/14 07:19:31;;;;;;;27.45;12.50;;;;;;;-144.05;83.96;57040.00;5055389;28;20044;-82
2023/12/14 07:21:58;;;;;;;27.40;13.23;;;;;;;-144.05;84.34;57008.13;5057786;28;21103;-81
2023/12/14 07:24:24;;;;;;;26.58;13.73;;;;;;;-144.05;84.31;57078.22;5065743;28;20224;-82
2023/12/14 07:26:50;;;;;;;29.90;12.95;;;;;;;-144.05;84.32;57023.00;5045983;28;20034;-82
2023/12/14 07:29:17;;;;;;;26.65;11.32;;;;;;;-144.05;84.10;57018.75;5050721;28;20017;-82
2023/12/14 07:31:43;;;;;;;26.17;11.93;;;;;;;-144.05;84.13;57012.38;5075992;22;20416;-78
2023/12/14 07:34:09;;;;;;;27.23;13.35;;;;;;;-144.05;84.06;57012.38;5063390;28;20043;-77
2023/12/14 07:36:36;;;;;;;25.05;12.52;;;;;;;-144.05;83.76;57031.50;5057431;28;20029;-79
2023/12/14 07:39:03;;;;;;;22.33;13.27;;;4.50;99.90;;;-144.05;83.82;57040.00;5037963;28;20033;-79
2023/12/14 07:41:32;;;;;;;27.60;13.82;;;;;;;-144.05;83.79;57014.50;5023765;28;20033;-79
2023/12/14 07:43:58;;;;;;;25.13;13.77;;;;;;;-144.05;84.09;57044.25;5036444;28;20034;-77
2023/12/14 07:46:24;;;;;;;27.55;13.20;;;;;;;-144.05;83.99;57044.25;5018654;28;20116;-79
2023/12/14 07:48:50;;;;;;;25.55;13.55;;;;;;;-144.05;83.91;57031.50;5019643;28;20022;-76
2023/12/14 07:51:17;;;;;;;28.80;13.57;;;;;;;-144.05;83.81;57029.38;5036907;28;20030;-78
2023/12/14 07:53:43;;;;;;;26.70;13.38;;;;;;;-144.05;83.81;57040.00;5052712;28;20025;-77
2023/12/14 07:56:10;;;;;;;30.95;15.60;;;;;;;-144.05;83.91;57023.00;5045018;28;20044;-80
2023/12/14 07:58:36;;;;;;;27.70;13.57;;;;;;;-144.05;84.17;57050.63;5024533;28;20026;-79
2023/12/14 08:01:02;;;;;;;28.17;14.18;;;;;;;-144.05;84.41;57027.25;5023350;28;20057;-78
2023/12/14 08:03:28;;;;;;;30.65;14.95;;;;;;;-144.05;84.27;57008.13;5036139;28;20096;-79
2023/12/14 08:05:54;;;;;;;32.47;15.63;;;;;;;-144.05;84.02;57018.75;5018407;28;20055;-78
2023/12/14 08:08:21;;;;;;;32.08;17.02;;;;;;;-144.05;83.97;57073.97;5036519;28;20045;-78
2023/12/14 08:10:47;;;;;;;35.35;16.83;;;;;;;-144.05;83.72;57073.97;5039362;28;20021;-78
2023/12/14 08:13:13;;;;;;;35.42;17.02;;;;;;;-144.05;84.17;57046.38;5020709;28;20101;-78
2023/12/14 08:15:40;;;;;;;32.55;15.00;;;;;;;-144.05;84.06;57025.13;5019073;28;20029;-77
2023/12/14 08:18:07;;;;;;;32.03;15.45;;;;;;;-144.05;84.21;57029.38;5019988;28;20041;-79
2023/12/14 08:20:33;;;;;;;32.08;15.40;;;;;;;-144.05;84.19;57035.75;5037094;28;20032;-77
2023/12/14 08:22:59;;;;;;;30.95;15.75;;;;;;;-144.05;84.00;57027.25;5038451;28;20063;-77
2023/12/14 08:25:26;;;;;;;32.90;16.15;;;;;;;-144.05;84.02;57042.13;5037219;28;20391;-77
2023/12/14 08:27:52;;;;;;;34.00;15.77;;;;;;;-144.05;83.82;57014.50;5019755;28;20029;-78
2023/12/14 08:30:18;;;;;;;32.00;16.77;;;;;;;-144.05;83.92;57035.75;5038138;28;20033;-78
2023/12/14 08:32:44;;;;;;;30.90;14.75;;;;;;;-144.05;83.96;57065.47;5019996;28;20450;-77
2023/12/14 08:35:11;;;;;;;26.73;13.65;;;;;;;-144.05;83.36;57044.25;5048798;28;20052;-80
2023/12/14 08:37:37;;;;;;;27.85;14.35;;;;;;;-144.05;83.80;57040.00;5037289;28;20040;-77
2023/12/14 08:40:05;;;;;;;26.25;14.23;;;;;;;-144.05;83.79;57031.50;5036257;28;20029;-78
2023/12/14 08:42:31;;;;;;;26.27;14.88;;;;;;;-144.05;83.24;57020.88;5037088;28;20033;-77
2023/12/14 08:44:58;;;;;;;26.15;13.45;;;;;;;-144.05;83.21;57027.25;5037003;28;20178;-78
2023/12/14 08:47:24;;;;;;;23.58;13.80;;;;;;;-144.05;83.18;57006.00;5036231;28;20548;-77
2023/12/14 08:49:50;;;;;;;26.27;14.60;;;;;;;-144.05;83.13;57059.09;5034441;28;20044;-77
2023/12/14 08:52:19;;;;;;;28.55;14.90;;;5.90;99.90;;;-144.05;83.09;57040.00;5038320;28;20443;-79
2023/12/14 08:54:45;;;;;;;27.02;13.48;;;;;;;-144.05;82.87;57031.50;5035426;28;20411;-78
2023/12/14 08:57:11;;;;;;;26.58;14.50;;;;;;;-144.05;82.36;57063.34;5018657;28;20035;-79
2023/12/14 08:59:38;;;;;;;27.48;14.48;;;;;;;-144.05;81.99;57025.13;5035683;28;20026;-78
2023/12/14 09:02:05;;;;;;;23.73;13.35;;;;;;;-144.05;81.94;57069.72;5018336;28;20026;-76
2023/12/14 09:04:31;;;;;;;25.33;13.80;;;;;;;-144.05;81.74;57031.50;5036376;28;20032;-77
2023/12/14 09:06:57;;;;;;;28.15;14.00;;;;;;;-144.05;82.20;57035.75;5021003;28;20025;-79
2023/12/14 09:09:24;;;;;;;25.42;14.65;;;;;;;-144.05;81.99;57048.50;5037877;28;20135;-76
2023/12/14 09:11:50;;;;;;;25.73;14.25;;;;;;;-144.05;82.06;57046.38;5019383;28;20037;-78
2023/12/14 09:14:16;;;;;;;25.80;13.57;;;;;;;-144.05;81.97;57020.88;5038426;28;20385;-78
2023/12/14 09:16:42;;;;;;;28.00;14.50;;;;;;;-144.05;81.57;57029.38;5039473;28;20088;-76
2023/12/14 09:19:09;;;;;;;25.15;13.45;;;;;;;-144.05;81.52;57031.50;5038941;28;20143;-77
2023/12/14 09:21:35;;;;;;;26.00;13.77;;;;;;;-144.05;81.39;57042.13;5036407;28;20029;-77
2023/12/14 09:24:01;;;;;;;24.65;13.07;;;;;;;-144.05;81.36;57040.00;5038256;28;20060;-76
2023/12/14 09:26:27;;;;;;;30.08;15.25;;;;;;;-144.05;81.48;57029.38;5037704;28;20040;-78
2023/12/14 09:28:54;;;;;;;27.35;14.13;;;;;;;-144.05;81.36;57048.50;5038692;28;20022;-79
2023/12/14 09:31:20;;;;;;;30.05;15.50;;;;;;;-144.05;81.31;57031.50;5037964;28;20108;-76
2023/12/14 09:33:46;;;;;;;31.25;15.90;;;;;;;-144.05;81.35;57020.88;5037845;28;20507;-77
2023/12/14 09:36:12;;;;;;;33.60;15.48;;;;;;;-144.05;81.22;57037.88;5037525;28;20033;-79
2023/12/14 09:38:39;;;;;;;30.73;15.90;;;;;;;-144.05;81.05;57040.00;5037557;28;20025;-79
2023/12/14 09:41:07;;;;;;;30.42;15.65;;;;;;;-144.05;80.80;57023.00;5038046;28;20033;-76
2023/12/14 09:43:33;;;;;;;28.90;15.15;;;;;;;-144.05;80.96;57042.13;5019518;28;20057;-78
2023/12/14 09:46:01;;;;;;;34.60;16.45;;;3.30;99.90;;;-144.05;80.87;57023.00;5037626;28;20037;-77
2023/12/14 09:48:29;;;;;;;30.63;15.50;;;5.50;99.90;;;-144.05;80.92;57056.97;5036665;28;20025;-78
2023/12/14 09:50:56;;;;;;;31.60;15.80;;;;;;;-144.05;80.80;57025.13;5036257;28;20479;-78
2023/12/14 09:53:22;;;;;;;33.25;16.08;;;;;;;-144.05;80.62;57044.25;5018709;28;20087;-78
2023/12/14 09:55:49;;;;;;;29.80;15.27;;;;;;;-144.05;80.79;57031.50;5020355;28;20052;-77
2023/12/14 09:58:15;;;;;;;33.38;17.08;;;;;;;-144.05;80.90;57012.38;5019023;28;20025;-77
2023/12/14 10:00:43;;;;;;;32.92;16.42;;;;;;;-144.05;81.16;57037.88;5036913;28;20433;-78
2023/12/14 10:03:28;;;;;;;30.95;15.68;;;5.70;99.90;;;-144.05;81.19;57031.50;5035061;28;20060;-78
2023/12/14 10:05:57;;;;;;;33.47;16.33;;;3.60;99.90;;;-144.05;81.56;57031.50;5018010;28;20107;-78
2023/12/14 10:08:24;;;;;;;33.90;16.35;;;;;;;-144.05;81.29;57033.63;5017493;28;20036;-79
2023/12/14 10:10:55;;;;;;;35.78;17.15;;;4.70;99.90;;;-144.05;81.67;57046.38;5018851;28;20120;-75
2023/12/14 10:13:38;;;;;;;33.72;15.32;;;6.30;99.90;;;-144.05;81.88;57063.34;5047058;28;20063;-78
2023/12/14 10:16:05;;;;;;;29.70;15.32;;;;;;;-144.05;82.04;56989.00;5030402;28;20042;-78
2023/12/14 10:18:36;;;;;;;36.20;16.38;;;5.40;99.90;;;-144.05;82.05;57069.72;5031994;28;20186;-78
2023/12/14 10:21:03;;;;;;;31.67;16.13;;;;;;;-144.05;82.31;57023.00;5017702;28;20025;-80
2023/12/14 10:23:29;;;;;;;29.95;15.38;;;;;;;-144.05;82.27;57044.25;5034825;28;20036;-78
2023/12/14 10:25:55;;;;;;;34.08;16.48;;;;;;;-144.05;82.31;57020.88;5035348;28;20034;-77
2023/12/14 10:28:24;;;;;;;34.15;17.25;;;5.70;99.90;;;-144.05;82.22;57044.25;5037251;28;20021;-79
2023/12/14 10:30:50;;;;;;;32.33;17.17;;;;;;;-144.05;82.13;57056.97;5037193;28;20033;-77
2023/12/14 10:33:16;;;;;;;33.00;16.75;;;;;;;-144.05;82.23;57048.50;5037944;28;20040;-79
2023/12/14 10:35:45;;;;;;;29.23;15.73;;;;;;;-144.05;82.34;57044.25;5038195;28;20033;-78
2023/12/14 10:38:14;;;;;;;36.40;16.42;;;;;;;-144.05;81.88;57018.75;5037978;28;20029;-76
2023/12/14 10:40:43;;;;;;;30.20;15.88;;;;;;;-144.05;82.34;57054.88;5036309;28;20092;-78
2023/12/14 10:43:12;;;;;;;33.65;15.93;;;5.70;99.90;;;-144.05;82.54;57020.88;5038956;28;20044;-78
2023/12/14 10:45:43;;;;;;;33.75;16.10;;;;;;;-144.05;82.40;57023.00;5039144;28;20038;-76
2023/12/14 10:48:13;;;;;;;30.73;15.00;;;;;;;-144.05;82.55;57061.22;5025249;28;20084;-78
2023/12/14 10:50:42;;;;;;;32.67;16.17;;;;;;;-144.05;82.56;57023.00;5037024;28;20049;-77
2023/12/14 10:53:09;;;;;;;31.52;16.60;;;;;;;-144.05;82.52;57048.50;5038439;28;20049;-78
2023/12/14 10:55:43;;;;;;;30.13;15.25;;;;;;;-144.05;82.55;57035.75;5022517;28;20460;-75